sensor_id;sensor_type;location;lat;lon;timestamp;pressure;altitude;pressure_sealevel;temperature;humidity
68634;BME280;55625;47.072;22.192;2024-01-06T00:02:06;99020.13;;;5.84;93.79
68634;BME280;55625;47.072;22.192;2024-01-06T00:04:32;99023.16;;;5.74;94.45
68634;BME280;55625;47.072;22.192;2024-01-06T00:06:58;99017.09;;;5.75;93.82
68634;BME280;55625;47.072;22.192;2024-01-06T00:09:24;99013.75;;;5.64;94.50
68634;BME280;55625;47.072;22.192;2024-01-06T00:11:50;99005.75;;;5.79;93.45
68634;BME280;55625;47.072;22.192;2024-01-06T00:14:16;99012.50;;;5.65;94.55
68634;BME280;55625;47.072;22.192;2024-01-06T00:16:42;98997.81;;;5.74;93.30
68634;BME280;55625;47.072;22.192;2024-01-06T00:19:07;98999.69;;;5.64;93.95
68634;BME280;55625;47.072;22.192;2024-01-06T00:21:33;99007.94;;;5.71;93.77
68634;BME280;55625;47.072;22.192;2024-01-06T00:23:59;99001.88;;;5.56;93.90
68634;BME280;55625;47.072;22.192;2024-01-06T00:26:25;98992.38;;;5.67;93.97
68634;BME280;55625;47.072;22.192;2024-01-06T00:28:51;98992.81;;;5.65;93.78
68634;BME280;55625;47.072;22.192;2024-01-06T00:31:17;98992.81;;;5.65;93.61
68634;BME280;55625;47.072;22.192;2024-01-06T00:33:43;98991.97;;;5.84;92.10
68634;BME280;55625;47.072;22.192;2024-01-06T00:36:10;98990.25;;;5.71;93.39
68634;BME280;55625;47.072;22.192;2024-01-06T00:38:36;98988.78;;;5.66;93.75
68634;BME280;55625;47.072;22.192;2024-01-06T00:41:02;98983.75;;;5.74;92.77
68634;BME280;55625;47.072;22.192;2024-01-06T00:43:28;98986.91;;;5.76;92.40
68634;BME280;55625;47.072;22.192;2024-01-06T00:45:54;98983.41;;;5.72;92.39
68634;BME280;55625;47.072;22.192;2024-01-06T00:48:20;98986.13;;;5.75;92.08
68634;BME280;55625;47.072;22.192;2024-01-06T00:50:45;98988.94;;;5.75;91.22
68634;BME280;55625;47.072;22.192;2024-01-06T00:53:12;98977.16;;;5.80;91.03
68634;BME280;55625;47.072;22.192;2024-01-06T00:55:38;98974.50;;;5.73;91.44
68634;BME280;55625;47.072;22.192;2024-01-06T00:58:04;98980.69;;;5.68;91.73
68634;BME280;55625;47.072;22.192;2024-01-06T01:00:30;98978.91;;;5.74;91.52
68634;BME280;55625;47.072;22.192;2024-01-06T01:02:56;98970.81;;;5.76;90.65
68634;BME280;55625;47.072;22.192;2024-01-06T01:05:22;98970.47;;;5.74;90.75
68634;BME280;55625;47.072;22.192;2024-01-06T01:07:48;98979.25;;;5.76;90.37
68634;BME280;55625;47.072;22.192;2024-01-06T01:10:14;98965.97;;;5.77;90.01
68634;BME280;55625;47.072;22.192;2024-01-06T01:12:40;98959.28;;;5.71;90.92
68634;BME280;55625;47.072;22.192;2024-01-06T01:15:06;98949.28;;;5.70;90.70
68634;BME280;55625;47.072;22.192;2024-01-06T01:17:32;98953.31;;;5.69;91.06
68634;BME280;55625;47.072;22.192;2024-01-06T01:19:58;98946.72;;;5.75;90.76
68634;BME280;55625;47.072;22.192;2024-01-06T01:22:24;98958.06;;;5.88;89.61
68634;BME280;55625;47.072;22.192;2024-01-06T01:24:50;98944.69;;;5.76;89.98
68634;BME280;55625;47.072;22.192;2024-01-06T01:27:16;98943.75;;;5.82;89.27
68634;BME280;55625;47.072;22.192;2024-01-06T01:29:42;98944.59;;;5.79;89.40
68634;BME280;55625;47.072;22.192;2024-01-06T01:32:07;98932.28;;;5.73;88.78
68634;BME280;55625;47.072;22.192;2024-01-06T01:34:33;98936.78;;;5.71;89.31
68634;BME280;55625;47.072;22.192;2024-01-06T01:37:00;98922.06;;;5.79;87.99
68634;BME280;55625;47.072;22.192;2024-01-06T01:39:26;98929.56;;;5.70;88.98
68634;BME280;55625;47.072;22.192;2024-01-06T01:41:53;98924.03;;;5.66;88.95
68634;BME280;55625;47.072;22.192;2024-01-06T01:44:19;98919.34;;;5.76;88.49
68634;BME280;55625;47.072;22.192;2024-01-06T01:46:45;98914.50;;;5.76;87.98
68634;BME280;55625;47.072;22.192;2024-01-06T01:49:11;98909.06;;;5.85;87.21
68634;BME280;55625;47.072;22.192;2024-01-06T01:51:37;98915.59;;;5.99;85.91
68634;BME280;55625;47.072;22.192;2024-01-06T01:54:05;98908.19;;;5.88;86.29
68634;BME280;55625;47.072;22.192;2024-01-06T01:56:35;98905.22;;;5.96;85.81
68634;BME280;55625;47.072;22.192;2024-01-06T01:59:11;98907.34;;;5.91;86.07
68634;BME280;55625;47.072;22.192;2024-01-06T02:01:37;98897.81;;;6.02;85.13
68634;BME280;55625;47.072;22.192;2024-01-06T02:04:03;98904.06;;;5.93;85.68
68634;BME280;55625;47.072;22.192;2024-01-06T02:06:29;98904.31;;;5.99;85.51
68634;BME280;55625;47.072;22.192;2024-01-06T02:08:55;98892.97;;;5.86;85.58
68634;BME280;55625;47.072;22.192;2024-01-06T02:11:21;98880.75;;;5.93;85.00
68634;BME280;55625;47.072;22.192;2024-01-06T02:13:47;98881.53;;;5.77;86.86
68634;BME280;55625;47.072;22.192;2024-01-06T02:16:13;98876.34;;;5.91;85.38
68634;BME280;55625;47.072;22.192;2024-01-06T02:18:39;98877.75;;;5.83;86.45
68634;BME280;55625;47.072;22.192;2024-01-06T02:21:06;98873.78;;;5.97;84.97
68634;BME280;55625;47.072;22.192;2024-01-06T02:23:35;98869.28;;;6.00;84.33
68634;BME280;55625;47.072;22.192;2024-01-06T02:26:02;98865.47;;;6.06;84.94
68634;BME280;55625;47.072;22.192;2024-01-06T02:28:27;98868.53;;;6.12;84.35
68634;BME280;55625;47.072;22.192;2024-01-06T02:30:53;98858.16;;;6.09;84.53
68634;BME280;55625;47.072;22.192;2024-01-06T02:33:19;98859.84;;;6.06;84.67
68634;BME280;55625;47.072;22.192;2024-01-06T02:35:46;98858.78;;;6.16;83.16
68634;BME280;55625;47.072;22.192;2024-01-06T02:38:12;98854.13;;;6.10;84.00
68634;BME280;55625;47.072;22.192;2024-01-06T02:40:38;98842.66;;;6.17;84.30
68634;BME280;55625;47.072;22.192;2024-01-06T02:43:04;98852.03;;;6.14;84.05
68634;BME280;55625;47.072;22.192;2024-01-06T02:45:30;98855.97;;;6.16;83.21
68634;BME280;55625;47.072;22.192;2024-01-06T02:47:56;98839.41;;;6.18;83.69
68634;BME280;55625;47.072;22.192;2024-01-06T02:50:22;98845.19;;;6.28;83.18
68634;BME280;55625;47.072;22.192;2024-01-06T02:52:47;98838.31;;;6.41;82.29
68634;BME280;55625;47.072;22.192;2024-01-06T02:55:14;98826.72;;;6.39;82.64
68634;BME280;55625;47.072;22.192;2024-01-06T02:57:40;98826.19;;;6.44;82.47
68634;BME280;55625;47.072;22.192;2024-01-06T03:00:08;98832.06;;;6.50;81.68
68634;BME280;55625;47.072;22.192;2024-01-06T03:02:34;98826.88;;;6.48;81.96
68634;BME280;55625;47.072;22.192;2024-01-06T03:05:02;98829.56;;;6.52;81.21
68634;BME280;55625;47.072;22.192;2024-01-06T03:07:28;98829.00;;;6.57;80.74
68634;BME280;55625;47.072;22.192;2024-01-06T03:09:54;98819.78;;;6.57;81.82
68634;BME280;55625;47.072;22.192;2024-01-06T03:12:20;98816.38;;;6.62;81.26
68634;BME280;55625;47.072;22.192;2024-01-06T03:14:45;98814.81;;;6.61;81.71
68634;BME280;55625;47.072;22.192;2024-01-06T03:17:11;98817.06;;;6.66;81.63
68634;BME280;55625;47.072;22.192;2024-01-06T03:19:38;98809.84;;;6.65;82.15
68634;BME280;55625;47.072;22.192;2024-01-06T03:22:04;98812.22;;;6.66;82.62
68634;BME280;55625;47.072;22.192;2024-01-06T03:24:30;98813.47;;;6.65;82.53
68634;BME280;55625;47.072;22.192;2024-01-06T03:26:57;98817.06;;;6.66;82.30
68634;BME280;55625;47.072;22.192;2024-01-06T03:29:22;98809.97;;;6.61;84.02
68634;BME280;55625;47.072;22.192;2024-01-06T03:31:48;98807.25;;;6.58;85.02
68634;BME280;55625;47.072;22.192;2024-01-06T03:34:14;98813.34;;;6.56;84.64
68634;BME280;55625;47.072;22.192;2024-01-06T03:36:41;98813.34;;;6.56;84.63
68634;BME280;55625;47.072;22.192;2024-01-06T03:39:07;98809.50;;;6.63;83.69
68634;BME280;55625;47.072;22.192;2024-01-06T03:41:33;98810.00;;;6.74;83.77
68634;BME280;55625;47.072;22.192;2024-01-06T03:43:59;98813.81;;;6.80;82.41
68634;BME280;55625;47.072;22.192;2024-01-06T03:46:25;98821.59;;;6.89;82.98
68634;BME280;55625;47.072;22.192;2024-01-06T03:48:51;98822.50;;;6.98;81.61
68634;BME280;55625;47.072;22.192;2024-01-06T03:51:17;98816.19;;;6.94;82.20
68634;BME280;55625;47.072;22.192;2024-01-06T03:53:43;98819.34;;;6.96;81.25
68634;BME280;55625;47.072;22.192;2024-01-06T03:56:10;98820.81;;;7.01;82.03
68634;BME280;55625;47.072;22.192;2024-01-06T03:58:39;98824.75;;;7.03;81.81
68634;BME280;55625;47.072;22.192;2024-01-06T04:01:04;98832.78;;;7.05;82.37
68634;BME280;55625;47.072;22.192;2024-01-06T04:03:30;98825.13;;;7.05;82.20
68634;BME280;55625;47.072;22.192;2024-01-06T04:05:56;98827.94;;;7.05;82.63
68634;BME280;55625;47.072;22.192;2024-01-06T04:08:22;98824.53;;;7.10;82.81
68634;BME280;55625;47.072;22.192;2024-01-06T04:10:48;98829.41;;;7.10;85.92
68634;BME280;55625;47.072;22.192;2024-01-06T04:13:15;98844.41;;;7.07;85.14
68634;BME280;55625;47.072;22.192;2024-01-06T04:15:41;98837.97;;;7.06;85.87
68634;BME280;55625;47.072;22.192;2024-01-06T04:18:07;98839.22;;;7.05;87.00
68634;BME280;55625;47.072;22.192;2024-01-06T04:20:33;98843.03;;;6.99;88.71
68634;BME280;55625;47.072;22.192;2024-01-06T04:22:59;98840.09;;;7.02;87.08
68634;BME280;55625;47.072;22.192;2024-01-06T04:25:25;98841.47;;;7.10;84.67
68634;BME280;55625;47.072;22.192;2024-01-06T04:27:51;98849.69;;;7.18;87.35
68634;BME280;55625;47.072;22.192;2024-01-06T04:30:17;98854.19;;;7.28;85.87
68634;BME280;55625;47.072;22.192;2024-01-06T04:32:43;98845.38;;;7.51;83.71
68634;BME280;55625;47.072;22.192;2024-01-06T04:35:10;98848.06;;;7.67;82.48
68634;BME280;55625;47.072;22.192;2024-01-06T04:37:36;98853.91;;;7.73;82.12
68634;BME280;55625;47.072;22.192;2024-01-06T04:40:02;98849.97;;;7.70;82.74
68634;BME280;55625;47.072;22.192;2024-01-06T04:42:29;98851.22;;;7.69;84.03
68634;BME280;55625;47.072;22.192;2024-01-06T04:44:55;98849.50;;;7.72;84.66
68634;BME280;55625;47.072;22.192;2024-01-06T04:47:21;98849.72;;;7.77;83.92
68634;BME280;55625;47.072;22.192;2024-01-06T04:49:47;98856.94;;;7.78;83.98
68634;BME280;55625;47.072;22.192;2024-01-06T04:52:13;98851.56;;;7.71;86.01
68634;BME280;55625;47.072;22.192;2024-01-06T04:54:38;98858.66;;;7.63;88.21
68634;BME280;55625;47.072;22.192;2024-01-06T04:57:04;98852.94;;;7.54;89.31
68634;BME280;55625;47.072;22.192;2024-01-06T04:59:30;98848.91;;;7.42;91.65
68634;BME280;55625;47.072;22.192;2024-01-06T05:01:58;98857.16;;;7.37;92.37
68634;BME280;55625;47.072;22.192;2024-01-06T05:04:24;98848.44;;;7.31;91.81
68634;BME280;55625;47.072;22.192;2024-01-06T05:06:51;98854.19;;;7.28;93.06
68634;BME280;55625;47.072;22.192;2024-01-06T05:09:18;98861.75;;;7.31;92.63
68634;BME280;55625;47.072;22.192;2024-01-06T05:11:44;98857.03;;;7.28;95.18
68634;BME280;55625;47.072;22.192;2024-01-06T05:14:11;98859.63;;;7.22;96.49
68634;BME280;55625;47.072;22.192;2024-01-06T05:16:37;98860.19;;;7.17;99.18
68634;BME280;55625;47.072;22.192;2024-01-06T05:19:02;98857.50;;;7.13;99.69
68634;BME280;55625;47.072;22.192;2024-01-06T05:21:29;98855.25;;;7.08;100.00
68634;BME280;55625;47.072;22.192;2024-01-06T05:23:56;98855.69;;;7.07;100.00
68634;BME280;55625;47.072;22.192;2024-01-06T05:26:21;98856.16;;;7.05;100.00
68634;BME280;55625;47.072;22.192;2024-01-06T05:28:48;98859.38;;;7.04;100.00
68634;BME280;55625;47.072;22.192;2024-01-06T05:31:14;98850.13;;;7.03;100.00
68634;BME280;55625;47.072;22.192;2024-01-06T05:33:40;98853.75;;;7.04;100.00
68634;BME280;55625;47.072;22.192;2024-01-06T05:36:06;98857.03;;;7.02;100.00
68634;BME280;55625;47.072;22.192;2024-01-06T05:38:32;98849.81;;;7.01;100.00
68634;BME280;55625;47.072;22.192;2024-01-06T05:40:57;98855.44;;;7.01;100.00
68634;BME280;55625;47.072;22.192;2024-01-06T05:43:23;98852.09;;;7.06;100.00
68634;BME280;55625;47.072;22.192;2024-01-06T05:45:49;98861.66;;;7.09;100.00
68634;BME280;55625;47.072;22.192;2024-01-06T05:48:15;98853.44;;;7.14;100.00
68634;BME280;55625;47.072;22.192;2024-01-06T05:50:41;98858.16;;;7.18;100.00
68634;BME280;55625;47.072;22.192;2024-01-06T05:53:07;98864.47;;;7.22;100.00
68634;BME280;55625;47.072;22.192;2024-01-06T05:55:34;98869.22;;;7.25;100.00
68634;BME280;55625;47.072;22.192;2024-01-06T05:58:00;98867.97;;;7.26;100.00
68634;BME280;55625;47.072;22.192;2024-01-06T06:00:26;98882.88;;;7.26;100.00
68634;BME280;55625;47.072;22.192;2024-01-06T06:02:52;98878.00;;;7.27;100.00
68634;BME280;55625;47.072;22.192;2024-01-06T06:05:18;98884.69;;;7.20;100.00
68634;BME280;55625;47.072;22.192;2024-01-06T06:07:45;98884.91;;;7.13;100.00
68634;BME280;55625;47.072;22.192;2024-01-06T06:10:12;98875.91;;;7.05;100.00
68634;BME280;55625;47.072;22.192;2024-01-06T06:12:38;98881.16;;;7.03;100.00
68634;BME280;55625;47.072;22.192;2024-01-06T06:15:05;98881.16;;;7.03;100.00
68634;BME280;55625;47.072;22.192;2024-01-06T06:17:32;98874.84;;;6.99;100.00
68634;BME280;55625;47.072;22.192;2024-01-06T06:19:59;98866.38;;;6.99;100.00
68634;BME280;55625;47.072;22.192;2024-01-06T06:22:26;98863.22;;;6.97;100.00
68634;BME280;55625;47.072;22.192;2024-01-06T06:24:59;98859.63;;;6.97;100.00
68634;BME280;55625;47.072;22.192;2024-01-06T06:27:26;98855.09;;;6.99;100.00
68634;BME280;55625;47.072;22.192;2024-01-06T06:29:53;98851.94;;;6.97;100.00
68634;BME280;55625;47.072;22.192;2024-01-06T06:32:19;98841.25;;;7.05;100.00
68634;BME280;55625;47.072;22.192;2024-01-06T06:34:45;98841.81;;;7.12;100.00
68634;BME280;55625;47.072;22.192;2024-01-06T06:37:11;98831.53;;;7.19;100.00
68634;BME280;55625;47.072;22.192;2024-01-06T06:39:37;98845.19;;;7.20;100.00
68634;BME280;55625;47.072;22.192;2024-01-06T06:42:04;98832.97;;;7.23;100.00
68634;BME280;55625;47.072;22.192;2024-01-06T06:44:30;98826.88;;;7.25;100.00
68634;BME280;55625;47.072;22.192;2024-01-06T06:46:56;98822.03;;;7.25;100.00
68634;BME280;55625;47.072;22.192;2024-01-06T06:49:22;98838.50;;;7.27;100.00
68634;BME280;55625;47.072;22.192;2024-01-06T06:51:49;98836.34;;;7.31;100.00
68634;BME280;55625;47.072;22.192;2024-01-06T06:54:16;98836.81;;;7.29;100.00
68634;BME280;55625;47.072;22.192;2024-01-06T06:56:42;98834.31;;;7.31;100.00
68634;BME280;55625;47.072;22.192;2024-01-06T06:59:09;98833.53;;;7.31;100.00
68634;BME280;55625;47.072;22.192;2024-01-06T07:01:35;98839.88;;;7.35;100.00
68634;BME280;55625;47.072;22.192;2024-01-06T07:04:02;98838.19;;;7.37;100.00
68634;BME280;55625;47.072;22.192;2024-01-06T07:06:29;98837.38;;;7.37;100.00
68634;BME280;55625;47.072;22.192;2024-01-06T07:08:56;98835.81;;;7.36;100.00
68634;BME280;55625;47.072;22.192;2024-01-06T07:11:21;98839.63;;;7.42;100.00
68634;BME280;55625;47.072;22.192;2024-01-06T07:13:47;98836.81;;;7.42;100.00
68634;BME280;55625;47.072;22.192;2024-01-06T07:16:13;98834.44;;;7.40;100.00
68634;BME280;55625;47.072;22.192;2024-01-06T07:18:39;98829.25;;;7.39;100.00
68634;BME280;55625;47.072;22.192;2024-01-06T07:21:06;98821.25;;;7.37;100.00
68634;BME280;55625;47.072;22.192;2024-01-06T07:23:35;98830.16;;;7.36;100.00
68634;BME280;55625;47.072;22.192;2024-01-06T07:26:01;98821.34;;;7.34;100.00
68634;BME280;55625;47.072;22.192;2024-01-06T07:28:27;98824.53;;;7.36;100.00
68634;BME280;55625;47.072;22.192;2024-01-06T07:30:53;98825.31;;;7.36;100.00
68634;BME280;55625;47.072;22.192;2024-01-06T07:33:20;98819.53;;;7.40;100.00
68634;BME280;55625;47.072;22.192;2024-01-06T07:35:46;98822.69;;;7.42;100.00
68634;BME280;55625;47.072;22.192;2024-01-06T07:38:13;98823.03;;;7.44;100.00
68634;BME280;55625;47.072;22.192;2024-01-06T07:40:39;98828.09;;;7.49;100.00
68634;BME280;55625;47.072;22.192;2024-01-06T07:43:05;98825.16;;;7.53;100.00
68634;BME280;55625;47.072;22.192;2024-01-06T07:45:32;98811.03;;;7.53;100.00
68634;BME280;55625;47.072;22.192;2024-01-06T07:47:59;98820.72;;;7.64;100.00
68634;BME280;55625;47.072;22.192;2024-01-06T07:50:25;98813.84;;;7.65;100.00
68634;BME280;55625;47.072;22.192;2024-01-06T07:52:51;98817.09;;;7.64;100.00
68634;BME280;55625;47.072;22.192;2024-01-06T07:55:18;98824.78;;;7.63;100.00
68634;BME280;55625;47.072;22.192;2024-01-06T07:57:44;98820.03;;;7.73;100.00
68634;BME280;55625;47.072;22.192;2024-01-06T08:00:12;98828.63;;;7.69;100.00
68634;BME280;55625;47.072;22.192;2024-01-06T08:02:42;98825.00;;;7.69;100.00
68634;BME280;55625;47.072;22.192;2024-01-06T08:05:08;98820.56;;;7.81;100.00
68634;BME280;55625;47.072;22.192;2024-01-06T08:07:34;98832.13;;;7.73;100.00
68634;BME280;55625;47.072;22.192;2024-01-06T08:10:00;98828.03;;;7.74;100.00
68634;BME280;55625;47.072;22.192;2024-01-06T08:12:26;98835.81;;;7.83;100.00
68634;BME280;55625;47.072;22.192;2024-01-06T08:14:52;98835.41;;;7.94;100.00
68634;BME280;55625;47.072;22.192;2024-01-06T08:17:18;98836.50;;;8.09;100.00
68634;BME280;55625;47.072;22.192;2024-01-06T08:19:44;98841.50;;;8.05;100.00
68634;BME280;55625;47.072;22.192;2024-01-06T08:22:13;98837.75;;;8.08;100.00
68634;BME280;55625;47.072;22.192;2024-01-06T08:24:39;98836.16;;;8.07;100.00
68634;BME280;55625;47.072;22.192;2024-01-06T08:27:05;98838.09;;;8.10;100.00
68634;BME280;55625;47.072;22.192;2024-01-06T08:29:31;98836.16;;;8.07;100.00
68634;BME280;55625;47.072;22.192;2024-01-06T08:31:57;98839.19;;;8.13;100.00
68634;BME280;55625;47.072;22.192;2024-01-06T08:34:23;98836.91;;;8.20;100.00
68634;BME280;55625;47.072;22.192;2024-01-06T08:36:49;98833.47;;;8.25;100.00
68634;BME280;55625;47.072;22.192;2024-01-06T08:39:16;98837.09;;;8.26;100.00
68634;BME280;55625;47.072;22.192;2024-01-06T08:41:42;98840.13;;;8.31;100.00
68634;BME280;55625;47.072;22.192;2024-01-06T08:44:08;98825.09;;;8.34;100.00
68634;BME280;55625;47.072;22.192;2024-01-06T08:46:34;98835.50;;;8.37;100.00
68634;BME280;55625;47.072;22.192;2024-01-06T08:49:00;98832.91;;;8.52;100.00
68634;BME280;55625;47.072;22.192;2024-01-06T08:51:26;98826.47;;;8.52;100.00
68634;BME280;55625;47.072;22.192;2024-01-06T08:53:52;98820.22;;;8.57;100.00
68634;BME280;55625;47.072;22.192;2024-01-06T08:56:19;98820.66;;;8.55;100.00
68634;BME280;55625;47.072;22.192;2024-01-06T08:58:45;98819.97;;;8.42;100.00
68634;BME280;55625;47.072;22.192;2024-01-06T09:01:11;98815.81;;;8.56;100.00
68634;BME280;55625;47.072;22.192;2024-01-06T09:03:37;98827.56;;;8.54;100.00
68634;BME280;55625;47.072;22.192;2024-01-06T09:06:03;98813.84;;;8.44;100.00
68634;BME280;55625;47.072;22.192;2024-01-06T09:08:29;98812.97;;;8.56;100.00
68634;BME280;55625;47.072;22.192;2024-01-06T09:10:55;98816.06;;;8.49;100.00
68634;BME280;55625;47.072;22.192;2024-01-06T09:13:23;98802.69;;;8.40;100.00
68634;BME280;55625;47.072;22.192;2024-01-06T09:15:50;98801.66;;;8.56;100.00
68634;BME280;55625;47.072;22.192;2024-01-06T09:18:16;98798.94;;;8.43;100.00
68634;BME280;55625;47.072;22.192;2024-01-06T09:20:42;98795.75;;;8.63;100.00
68634;BME280;55625;47.072;22.192;2024-01-06T09:23:08;98794.09;;;8.53;100.00
68634;BME280;55625;47.072;22.192;2024-01-06T09:25:36;98793.59;;;8.45;100.00
68634;BME280;55625;47.072;22.192;2024-01-06T09:28:01;98777.94;;;8.53;100.00
68634;BME280;55625;47.072;22.192;2024-01-06T09:30:27;98785.47;;;8.56;100.00
68634;BME280;55625;47.072;22.192;2024-01-06T09:32:53;98790.97;;;8.51;100.00
68634;BME280;55625;47.072;22.192;2024-01-06T09:35:19;98781.53;;;8.54;100.00
68634;BME280;55625;47.072;22.192;2024-01-06T09:37:46;98781.22;;;8.52;100.00
68634;BME280;55625;47.072;22.192;2024-01-06T09:40:13;98786.63;;;8.59;100.00
68634;BME280;55625;47.072;22.192;2024-01-06T09:42:40;98786.75;;;8.55;100.00
68634;BME280;55625;47.072;22.192;2024-01-06T09:45:07;98776.81;;;8.51;100.00
68634;BME280;55625;47.072;22.192;2024-01-06T09:47:35;98774.59;;;8.46;100.00
68634;BME280;55625;47.072;22.192;2024-01-06T09:50:03;98766.72;;;8.40;100.00
68634;BME280;55625;47.072;22.192;2024-01-06T09:52:33;98772.22;;;8.44;100.00
68634;BME280;55625;47.072;22.192;2024-01-06T09:55:02;98768.94;;;8.46;100.00
68634;BME280;55625;47.072;22.192;2024-01-06T09:57:31;98759.66;;;8.45;100.00
68634;BME280;55625;47.072;22.192;2024-01-06T09:59:58;98764.22;;;8.43;100.00
68634;BME280;55625;47.072;22.192;2024-01-06T10:02:25;98756.97;;;8.42;100.00
68634;BME280;55625;47.072;22.192;2024-01-06T10:04:51;98745.69;;;8.42;100.00
68634;BME280;55625;47.072;22.192;2024-01-06T10:07:17;98752.41;;;8.35;100.00
68634;BME280;55625;47.072;22.192;2024-01-06T10:09:43;98746.59;;;8.38;100.00
68634;BME280;55625;47.072;22.192;2024-01-06T10:12:09;98741.78;;;8.48;100.00
68634;BME280;55625;47.072;22.192;2024-01-06T10:14:35;98746.19;;;8.49;100.00
68634;BME280;55625;47.072;22.192;2024-01-06T10:17:02;98741.47;;;8.46;100.00
68634;BME280;55625;47.072;22.192;2024-01-06T10:19:31;98733.47;;;8.54;100.00
68634;BME280;55625;47.072;22.192;2024-01-06T10:21:57;98738.66;;;8.55;100.00
68634;BME280;55625;47.072;22.192;2024-01-06T10:24:27;98724.72;;;8.61;100.00
68634;BME280;55625;47.072;22.192;2024-01-06T10:26:53;98726.94;;;8.66;100.00
68634;BME280;55625;47.072;22.192;2024-01-06T10:29:19;98735.31;;;8.79;100.00
68634;BME280;55625;47.072;22.192;2024-01-06T10:31:45;98733.91;;;8.83;100.00
68634;BME280;55625;47.072;22.192;2024-01-06T10:34:11;98722.44;;;8.87;100.00
68634;BME280;55625;47.072;22.192;2024-01-06T10:36:37;98718.03;;;8.86;100.00
68634;BME280;55625;47.072;22.192;2024-01-06T10:39:03;98714.63;;;9.00;100.00
68634;BME280;55625;47.072;22.192;2024-01-06T10:41:30;98714.50;;;9.03;100.00
68634;BME280;55625;47.072;22.192;2024-01-06T10:43:58;98706.94;;;9.10;100.00
68634;BME280;55625;47.072;22.192;2024-01-06T10:46:27;98706.16;;;9.09;100.00
68634;BME280;55625;47.072;22.192;2024-01-06T10:48:55;98701.13;;;9.13;100.00
68634;BME280;55625;47.072;22.192;2024-01-06T10:51:23;98695.50;;;9.22;100.00
68634;BME280;55625;47.072;22.192;2024-01-06T10:53:51;98693.31;;;9.36;100.00
68634;BME280;55625;47.072;22.192;2024-01-06T10:56:19;98691.56;;;9.47;100.00
68634;BME280;55625;47.072;22.192;2024-01-06T10:58:48;98693.16;;;9.67;100.00
68634;BME280;55625;47.072;22.192;2024-01-06T11:01:21;98688.28;;;9.67;100.00
68634;BME280;55625;47.072;22.192;2024-01-06T11:03:48;98690.63;;;9.69;100.00
68634;BME280;55625;47.072;22.192;2024-01-06T11:06:18;98690.31;;;9.76;100.00
68634;BME280;55625;47.072;22.192;2024-01-06T11:08:54;98689.38;;;9.70;100.00
68634;BME280;55625;47.072;22.192;2024-01-06T11:11:23;98684.97;;;9.78;100.00
68634;BME280;55625;47.072;22.192;2024-01-06T11:13:49;98672.41;;;9.60;100.00
68634;BME280;55625;47.072;22.192;2024-01-06T11:16:35;98667.69;;;9.57;100.00
68634;BME280;55625;47.072;22.192;2024-01-06T11:19:02;98671.44;;;9.63;100.00
68634;BME280;55625;47.072;22.192;2024-01-06T11:21:33;98662.75;;;9.76;100.00
68634;BME280;55625;47.072;22.192;2024-01-06T11:24:18;98658.06;;;9.82;100.00
68634;BME280;55625;47.072;22.192;2024-01-06T11:26:56;98645.56;;;9.98;100.00
68634;BME280;55625;47.072;22.192;2024-01-06T11:29:22;98652.00;;;10.08;100.00
68634;BME280;55625;47.072;22.192;2024-01-06T11:32:20;98642.41;;;10.14;100.00
68634;BME280;55625;47.072;22.192;2024-01-06T11:34:54;98645.53;;;10.25;100.00
68634;BME280;55625;47.072;22.192;2024-01-06T11:40:24;98638.53;;;10.36;100.00
68634;BME280;55625;47.072;22.192;2024-01-06T11:43:08;98634.75;;;10.39;100.00
68634;BME280;55625;47.072;22.192;2024-01-06T11:45:36;98626.88;;;10.43;100.00
68634;BME280;55625;47.072;22.192;2024-01-06T11:48:05;98617.59;;;10.42;100.00
68634;BME280;55625;47.072;22.192;2024-01-06T11:50:34;98619.09;;;10.52;100.00
68634;BME280;55625;47.072;22.192;2024-01-06T11:53:03;98613.13;;;10.50;100.00
68634;BME280;55625;47.072;22.192;2024-01-06T11:55:29;98624.34;;;10.45;100.00
68634;BME280;55625;47.072;22.192;2024-01-06T11:57:58;98615.84;;;10.36;100.00
68634;BME280;55625;47.072;22.192;2024-01-06T12:00:31;98612.91;;;10.30;100.00
68634;BME280;55625;47.072;22.192;2024-01-06T12:03:01;98607.09;;;10.24;100.00
68634;BME280;55625;47.072;22.192;2024-01-06T12:05:27;98613.56;;;10.16;100.00
68634;BME280;55625;47.072;22.192;2024-01-06T12:08:01;98604.75;;;10.14;100.00
68634;BME280;55625;47.072;22.192;2024-01-06T12:10:28;98603.00;;;10.16;100.00
68634;BME280;55625;47.072;22.192;2024-01-06T12:13:00;98600.47;;;10.18;100.00
68634;BME280;55625;47.072;22.192;2024-01-06T12:15:29;98606.47;;;10.20;100.00
68634;BME280;55625;47.072;22.192;2024-01-06T12:17:55;98586.88;;;10.32;100.00
68634;BME280;55625;47.072;22.192;2024-01-06T12:20:23;98588.47;;;10.33;100.00
68634;BME280;55625;47.072;22.192;2024-01-06T12:22:51;98593.94;;;10.45;100.00
68634;BME280;55625;47.072;22.192;2024-01-06T12:25:17;98595.69;;;10.43;100.00
68634;BME280;55625;47.072;22.192;2024-01-06T12:27:44;98590.63;;;10.47;100.00
68634;BME280;55625;47.072;22.192;2024-01-06T12:30:21;98590.72;;;10.52;100.00
68634;BME280;55625;47.072;22.192;2024-01-06T12:32:49;98593.31;;;10.41;100.00
68634;BME280;55625;47.072;22.192;2024-01-06T12:35:19;98593.78;;;10.40;100.00
68634;BME280;55625;47.072;22.192;2024-01-06T12:37:45;98588.75;;;10.35;100.00
68634;BME280;55625;47.072;22.192;2024-01-06T12:40:15;98590.16;;;10.39;100.00
68634;BME280;55625;47.072;22.192;2024-01-06T12:42:43;98590.34;;;10.36;100.00
68634;BME280;55625;47.072;22.192;2024-01-06T12:45:10;98588.88;;;10.40;100.00
68634;BME280;55625;47.072;22.192;2024-01-06T12:47:36;98589.38;;;10.39;100.00
68634;BME280;55625;47.072;22.192;2024-01-06T12:50:03;98585.75;;;10.38;100.00
68634;BME280;55625;47.072;22.192;2024-01-06T12:52:30;98588.88;;;10.40;100.00
68634;BME280;55625;47.072;22.192;2024-01-06T12:54:56;98581.97;;;10.41;100.00